createdAt,value
2018-03-06T00:02:23.000Z,13.80
2018-03-06T00:04:50.604Z,13.13
2018-03-06T00:07:18.979Z,11.30
2018-03-06T00:09:46.600Z,12.50
2018-03-06T00:12:14.226Z,16.87
2018-03-06T00:14:42.604Z,14.60
2018-03-06T00:17:11.021Z,14.90
2018-03-06T00:19:38.640Z,14.80
2018-03-06T00:22:06.283Z,13.17
2018-03-06T00:24:33.897Z,14.47
2018-03-06T00:27:02.288Z,14.90
2018-03-06T00:29:29.906Z,18.03
2018-03-06T00:31:57.540Z,14.47
2018-03-06T00:34:25.181Z,12.60
2018-03-06T00:36:52.799Z,15.87
2018-03-06T00:39:20.412Z,16.43
2018-03-06T00:41:48.053Z,18.53
2018-03-06T00:44:15.671Z,20.00
2018-03-06T00:46:43.289Z,19.47
2018-03-06T00:49:10.914Z,17.30
2018-03-06T00:51:38.542Z,16.83
2018-03-06T00:54:06.163Z,20.53
2018-03-06T00:56:33.773Z,17.03
2018-03-06T00:59:01.400Z,22.40
2018-03-06T01:01:29.028Z,20.50
2018-03-06T01:03:56.658Z,16.23
2018-03-06T01:06:24.285Z,15.00
2018-03-06T01:08:51.908Z,22.83
2018-03-06T01:11:19.541Z,20.23
2018-03-06T01:13:47.160Z,21.80
2018-03-06T01:16:25.697Z,25.57
2018-03-06T01:18:53.321Z,30.87
2018-03-06T01:21:20.942Z,27.37
2018-03-06T01:23:48.560Z,27.37
2018-03-06T01:26:16.195Z,26.97
2018-03-06T01:28:43.808Z,27.13
2018-03-06T01:31:11.434Z,30.77
2018-03-06T01:33:39.056Z,21.63
2018-03-06T01:36:06.682Z,28.13
2018-03-06T01:38:34.305Z,28.97
2018-03-06T01:41:01.941Z,26.27
2018-03-06T01:43:29.552Z,28.70
2018-03-06T01:45:57.939Z,30.20
2018-03-06T01:48:26.320Z,27.20
2018-03-06T01:50:54.724Z,23.10
2018-03-06T01:53:22.348Z,31.70
2018-03-06T01:55:49.980Z,31.97
2018-03-06T01:58:17.606Z,25.70
2018-03-06T02:00:46.035Z,24.80
2018-03-06T02:03:13.645Z,27.80
2018-03-06T02:05:41.264Z,23.07
2018-03-06T02:08:08.906Z,18.63
2018-03-06T02:10:36.518Z,27.60
2018-03-06T02:13:04.153Z,21.67
2018-03-06T02:15:31.791Z,23.23
2018-03-06T02:18:00.185Z,23.37
2018-03-06T02:20:27.812Z,20.13
2018-03-06T02:22:55.440Z,19.73
2018-03-06T02:25:23.061Z,19.47
2018-03-06T02:27:50.715Z,18.90
2018-03-06T02:30:18.337Z,15.77
2018-03-06T02:32:45.980Z,18.37
2018-03-06T02:35:13.616Z,19.33
2018-03-06T02:37:41.644Z,19.87
2018-03-06T02:40:09.264Z,20.53
2018-03-06T02:42:36.886Z,19.07
2018-03-06T02:45:04.522Z,19.90
2018-03-06T02:47:32.140Z,19.80
2018-03-06T02:49:59.768Z,21.57
2018-03-06T02:52:27.404Z,23.60
2018-03-06T02:54:55.815Z,22.87
2018-03-06T02:57:23.420Z,23.93
2018-03-06T02:59:51.057Z,22.53
2018-03-06T03:02:18.670Z,19.73
2018-03-06T03:04:46.314Z,21.60
2018-03-06T03:07:13.935Z,23.57
2018-03-06T03:09:41.555Z,22.20
2018-03-06T03:12:09.172Z,17.90
2018-03-06T03:14:36.802Z,20.23
2018-03-06T03:17:04.445Z,23.20
2018-03-06T03:19:33.056Z,23.10
2018-03-06T03:22:00.689Z,22.73
2018-03-06T03:24:28.312Z,22.77
2018-03-06T03:26:55.949Z,25.00
2018-03-06T03:29:23.564Z,20.67
2018-03-06T03:31:51.188Z,21.30
2018-03-06T03:34:18.807Z,20.73
2018-03-06T03:36:46.445Z,21.07
2018-03-06T03:39:14.072Z,22.70
2018-03-06T03:41:41.704Z,20.17
2018-03-06T03:44:09.336Z,23.60
2018-03-06T03:46:37.744Z,23.43
2018-03-06T03:49:05.368Z,21.20
2018-03-06T03:51:33.756Z,21.90
2018-03-06T03:54:02.161Z,24.83
2018-03-06T03:56:29.796Z,21.43
2018-03-06T03:58:57.424Z,22.00
2018-03-06T04:01:25.053Z,21.67
2018-03-06T04:03:52.684Z,22.70
2018-03-06T04:06:20.308Z,21.33
2018-03-06T04:08:47.929Z,22.13
2018-03-06T04:11:15.556Z,27.97
2018-03-06T04:13:43.957Z,21.30
2018-03-06T04:16:11.592Z,26.70
2018-03-06T04:18:39.212Z,23.10
2018-03-06T04:21:06.827Z,25.87
2018-03-06T04:23:34.448Z,22.83
2018-03-06T04:26:02.087Z,18.97
2018-03-06T04:28:29.712Z,25.23
2018-03-06T04:30:58.244Z,22.63
2018-03-06T04:33:25.879Z,24.07
2018-03-06T04:35:53.500Z,23.63
2018-03-06T04:38:21.891Z,24.40
2018-03-06T04:40:50.280Z,25.17
2018-03-06T04:43:17.913Z,21.37
2018-03-06T04:45:45.590Z,23.70
2018-03-06T04:48:13.208Z,24.40
2018-03-06T04:50:40.843Z,27.50
2018-03-06T04:53:08.937Z,24.67
2018-03-06T04:55:36.565Z,31.50
2018-03-06T04:58:04.188Z,26.73
2018-03-06T05:00:32.005Z,28.33
2018-03-06T05:03:04.057Z,32.05
2018-03-06T05:05:31.713Z,29.73
2018-03-06T05:07:59.343Z,32.13
2018-03-06T05:10:26.972Z,32.67
2018-03-06T05:12:54.888Z,29.90
2018-03-06T05:15:22.508Z,28.80
2018-03-06T05:17:50.926Z,32.03
2018-03-06T05:20:18.536Z,31.87
2018-03-06T05:22:46.169Z,27.23
2018-03-06T05:25:13.806Z,30.20
2018-03-06T05:27:42.199Z,32.50
2018-03-06T05:30:09.829Z,28.70
2018-03-06T05:32:37.456Z,31.27
2018-03-06T05:35:05.092Z,32.37
2018-03-06T05:37:32.720Z,28.27
2018-03-06T05:40:02.346Z,36.00
2018-03-06T05:42:29.968Z,29.20
2018-03-06T05:44:57.593Z,29.97
2018-03-06T05:50:13.101Z,24.37
2018-03-06T05:52:41.106Z,27.27
2018-03-06T05:55:08.724Z,29.80
2018-03-06T05:57:37.117Z,25.17
2018-03-06T06:00:04.755Z,30.27
2018-03-06T06:02:32.380Z,32.20
2018-03-06T06:05:00.005Z,29.77
2018-03-06T06:07:27.901Z,29.53
2018-03-06T06:09:55.524Z,27.10
2018-03-06T06:12:23.147Z,34.93
2018-03-06T06:14:50.830Z,33.73
2018-03-06T06:17:18.785Z,33.40
2018-03-06T06:19:46.412Z,29.27
2018-03-06T06:22:14.810Z,34.77
2018-03-06T06:24:43.599Z,29.17
2018-03-06T06:27:11.240Z,31.60
2018-03-06T06:29:38.868Z,32.37
2018-03-06T06:32:06.500Z,29.30
2018-03-06T06:34:34.124Z,34.00
2018-03-06T06:37:01.753Z,39.57
2018-03-06T06:39:29.379Z,29.13
2018-03-06T06:41:57.773Z,32.77
2018-03-06T06:44:25.399Z,37.97
2018-03-06T06:46:53.077Z,33.10
2018-03-06T06:49:22.590Z,29.80
2018-03-06T06:51:50.184Z,33.53
2018-03-06T06:54:17.809Z,35.17
2018-03-06T06:56:45.437Z,31.23
2018-03-06T06:59:13.060Z,35.33
2018-03-06T07:01:40.693Z,30.70
2018-03-06T07:04:08.313Z,39.77
2018-03-06T07:06:35.949Z,32.70
2018-03-06T07:09:03.562Z,34.67
2018-03-06T07:11:31.207Z,33.43
2018-03-06T07:13:58.841Z,36.43
2018-03-06T07:16:26.482Z,33.60
2018-03-06T07:18:54.105Z,33.47
2018-03-06T07:21:22.488Z,32.80
2018-03-06T07:23:50.888Z,36.30
2018-03-06T07:26:18.504Z,32.93
2018-03-06T07:28:46.132Z,29.67
2018-03-06T07:31:13.760Z,33.97
2018-03-06T07:33:42.146Z,32.23
2018-03-06T07:36:10.532Z,31.17
2018-03-06T07:38:38.924Z,34.20
2018-03-06T07:41:06.570Z,28.40
2018-03-06T07:43:34.192Z,39.43
2018-03-06T07:46:01.816Z,36.93
2018-03-06T07:48:30.217Z,39.47
2018-03-06T07:50:57.840Z,40.60
2018-03-06T07:53:25.456Z,40.83
2018-03-06T07:55:53.101Z,33.40
2018-03-06T07:58:20.713Z,35.50
2018-03-06T08:00:48.348Z,33.50
2018-03-06T08:03:15.972Z,35.57
2018-03-06T08:05:43.589Z,34.30
2018-03-06T08:08:11.208Z,33.73
2018-03-06T08:10:38.828Z,34.47
2018-03-06T08:13:06.458Z,36.17
2018-03-06T08:15:34.086Z,34.13
2018-03-06T08:18:01.724Z,35.53
2018-03-06T08:20:29.364Z,34.93
2018-03-06T08:22:57.742Z,34.33
2018-03-06T08:25:26.136Z,29.73
2018-03-06T08:27:53.760Z,31.30
2018-03-06T08:30:21.396Z,33.03
2018-03-06T08:32:49.865Z,32.53
2018-03-06T08:35:17.479Z,32.63
2018-03-06T08:37:45.105Z,33.90
2018-03-06T08:40:12.729Z,30.93
2018-03-06T08:42:41.136Z,31.10
2018-03-06T08:45:08.783Z,33.27
2018-03-06T08:47:37.176Z,31.90
2018-03-06T08:50:04.804Z,33.60
2018-03-06T08:52:32.440Z,34.93
2018-03-06T08:55:00.061Z,33.43
2018-03-06T08:57:28.448Z,31.43
2018-03-06T08:59:56.832Z,32.60
2018-03-06T09:02:25.221Z,32.83
2018-03-06T09:04:53.609Z,29.43
2018-03-06T09:07:21.226Z,34.37
2018-03-06T09:09:48.864Z,33.73
2018-03-06T09:12:16.492Z,29.63
2018-03-06T09:14:44.872Z,30.30
2018-03-06T09:17:13.304Z,29.20
2018-03-06T09:19:40.905Z,30.47
2018-03-06T09:22:08.528Z,28.87
2018-03-06T09:24:36.178Z,27.17
2018-03-06T09:27:04.554Z,32.60
2018-03-06T09:29:32.177Z,30.67
2018-03-06T09:31:59.800Z,29.33
2018-03-06T09:34:27.423Z,28.50
2018-03-06T09:36:55.059Z,28.43
2018-03-06T09:39:22.684Z,29.93
2018-03-06T09:41:50.321Z,29.63
2018-03-06T09:44:17.950Z,26.57
2018-03-06T09:46:45.573Z,27.77
2018-03-06T09:49:13.972Z,38.57
2018-03-06T09:51:41.608Z,27.97
2018-03-06T09:54:09.248Z,30.77
2018-03-06T09:56:36.877Z,28.60
2018-03-06T09:59:04.503Z,26.77
2018-03-06T10:01:32.146Z,27.90
2018-03-06T10:03:59.777Z,27.77
2018-03-06T10:06:27.417Z,25.17
2018-03-06T10:08:55.049Z,28.57
2018-03-06T10:11:22.677Z,31.57
2018-03-06T10:13:50.315Z,27.57
2018-03-06T10:16:18.789Z,30.00
2018-03-06T10:18:46.429Z,29.20
2018-03-06T10:21:14.066Z,25.80
2018-03-06T10:23:41.697Z,30.87
2018-03-06T10:26:10.097Z,29.20
2018-03-06T10:28:37.737Z,29.40
2018-03-06T10:31:05.373Z,28.07
2018-03-06T10:33:33.082Z,32.63
2018-03-06T10:36:00.725Z,24.93
2018-03-06T10:38:28.357Z,27.07
2018-03-06T10:40:55.993Z,26.70
2018-03-06T10:43:23.634Z,34.80
2018-03-06T10:45:51.281Z,25.50
2018-03-06T10:48:18.925Z,29.17
2018-03-06T10:50:46.562Z,22.60
2018-03-06T10:53:14.207Z,25.60
2018-03-06T10:55:41.837Z,23.77
2018-03-06T10:58:09.473Z,21.57
2018-03-06T11:00:37.109Z,24.20
2018-03-06T11:03:05.509Z,19.93
2018-03-06T11:05:33.128Z,23.17
2018-03-06T11:08:00.765Z,26.20
2018-03-06T11:10:28.402Z,32.27
2018-03-06T11:12:56.027Z,24.63
2018-03-06T11:15:23.761Z,26.13
2018-03-06T11:17:51.387Z,29.33
2018-03-06T11:20:19.784Z,29.00
2018-03-06T11:22:47.423Z,26.30
2018-03-06T11:25:15.044Z,31.43
2018-03-06T11:27:42.681Z,25.70
2018-03-06T11:30:10.317Z,25.17
2018-03-06T11:32:37.940Z,21.07
2018-03-06T11:35:05.568Z,24.13
2018-03-06T11:37:33.964Z,22.33
2018-03-06T11:40:01.598Z,23.93
2018-03-06T11:42:29.220Z,20.70
2018-03-06T11:44:56.849Z,26.23
2018-03-06T11:47:25.244Z,26.33
2018-03-06T11:49:52.882Z,26.97
2018-03-06T11:52:20.507Z,24.53
2018-03-06T11:54:48.128Z,27.93
2018-03-06T11:57:16.545Z,32.03
2018-03-06T11:59:44.172Z,27.70
2018-03-06T12:02:12.577Z,26.80
2018-03-06T12:04:40.211Z,25.97
2018-03-06T12:07:07.830Z,23.90
2018-03-06T12:09:35.456Z,23.83
2018-03-06T12:12:03.857Z,21.00
2018-03-06T12:14:31.488Z,24.10
2018-03-06T12:16:59.121Z,24.17
2018-03-06T12:19:26.750Z,25.03
2018-03-06T12:21:55.144Z,26.90
2018-03-06T12:24:22.782Z,25.20
2018-03-06T12:26:51.173Z,31.60
2018-03-06T12:29:19.560Z,25.70
2018-03-06T12:31:47.952Z,24.73
2018-03-06T12:34:15.580Z,26.50
2018-03-06T12:36:43.212Z,22.63
2018-03-06T12:39:10.848Z,24.17
2018-03-06T12:41:38.472Z,25.53
2018-03-06T12:44:09.385Z,30.83
2018-03-06T12:46:37.023Z,26.97
2018-03-06T12:49:04.668Z,25.60
2018-03-06T12:51:32.287Z,25.17
2018-03-06T12:53:59.919Z,25.93
2018-03-06T12:56:28.319Z,23.93
2018-03-06T12:58:55.965Z,29.13
2018-03-06T13:01:24.374Z,32.00
2018-03-06T13:03:51.987Z,27.40
2018-03-06T13:06:19.610Z,27.43
2018-03-06T13:08:47.243Z,24.37
2018-03-06T13:11:15.635Z,27.03
2018-03-06T13:13:43.275Z,24.80
2018-03-06T13:16:10.899Z,21.33
2018-03-06T13:18:38.522Z,22.80
2018-03-06T13:21:06.151Z,24.93
2018-03-06T13:23:33.785Z,20.47
2018-03-06T13:26:01.409Z,24.40
2018-03-06T13:28:29.820Z,20.97
2018-03-06T13:30:57.444Z,22.17
2018-03-06T13:33:25.090Z,23.07
2018-03-06T13:35:52.712Z,22.33
2018-03-06T13:38:20.361Z,22.90
2018-03-06T13:40:47.991Z,22.53
2018-03-06T13:43:15.608Z,19.33
2018-03-06T13:45:43.247Z,31.10
2018-03-06T13:48:11.561Z,23.23
2018-03-06T13:50:39.193Z,18.20
2018-03-06T13:53:06.841Z,17.60
2018-03-06T13:55:34.480Z,18.03
2018-03-06T13:58:02.114Z,19.13
2018-03-06T14:00:29.792Z,24.50
2018-03-06T14:02:57.433Z,22.10
2018-03-06T14:05:25.832Z,35.40
2018-03-06T14:07:54.313Z,14.70
2018-03-06T14:10:22.721Z,16.40
2018-03-06T14:12:50.360Z,17.90
2018-03-06T14:15:18.744Z,15.80
2018-03-06T14:17:47.143Z,16.03
2018-03-06T14:20:14.772Z,19.47
2018-03-06T14:22:43.168Z,15.50
2018-03-06T14:25:10.853Z,17.77
2018-03-06T14:27:38.460Z,19.23
2018-03-06T14:30:06.102Z,19.60
2018-03-06T14:32:33.717Z,19.43
2018-03-06T14:35:01.340Z,18.13
2018-03-06T14:37:28.986Z,18.53
2018-03-06T14:39:56.864Z,18.50
2018-03-06T14:42:24.495Z,19.10
2018-03-06T14:44:52.132Z,19.60
2018-03-06T14:47:19.756Z,20.27
2018-03-06T14:49:47.393Z,21.90
2018-03-06T14:52:15.032Z,19.57
2018-03-06T14:54:42.663Z,19.23
2018-03-06T14:57:10.291Z,20.73
2018-03-06T14:59:37.912Z,23.90
2018-03-06T15:02:05.540Z,18.50
2018-03-06T15:04:33.939Z,21.07
2018-03-06T15:07:01.577Z,19.17
2018-03-06T15:09:29.210Z,16.97
2018-03-06T15:11:56.874Z,22.50
2018-03-06T15:14:24.584Z,27.57
2018-03-06T15:16:52.977Z,24.13
2018-03-06T15:19:21.373Z,20.17
2018-03-06T15:21:49.012Z,24.70
2018-03-06T15:24:16.676Z,20.90
2018-03-06T15:26:44.320Z,19.87
2018-03-06T15:29:11.944Z,20.63
2018-03-06T15:31:39.571Z,27.70
2018-03-06T15:34:07.249Z,19.17
2018-03-06T15:36:34.860Z,23.03
2018-03-06T15:39:02.516Z,17.27
2018-03-06T15:41:30.116Z,20.93
2018-03-06T15:43:57.769Z,21.03
2018-03-06T15:46:25.397Z,16.33
2018-03-06T15:49:08.001Z,14.90
2018-03-06T15:51:35.630Z,14.97
2018-03-06T15:54:03.257Z,17.97
2018-03-06T15:56:30.884Z,24.13
2018-03-06T15:58:59.295Z,15.60
2018-03-06T16:01:26.920Z,15.93
2018-03-06T16:03:54.565Z,17.03
2018-03-06T16:06:22.183Z,16.77
2018-03-06T16:08:49.809Z,16.27
2018-03-06T16:11:17.437Z,14.43
2018-03-06T16:13:45.056Z,14.37
2018-03-06T16:16:19.277Z,16.80
2018-03-06T16:18:47.673Z,16.80
2018-03-06T16:21:16.069Z,17.53
2018-03-06T16:23:43.712Z,21.63
2018-03-06T16:26:12.114Z,23.67
2018-03-06T16:28:39.742Z,24.50
2018-03-06T16:31:07.387Z,21.80
2018-03-06T16:33:35.013Z,23.93
2018-03-06T16:36:02.640Z,25.00
2018-03-06T16:38:31.057Z,27.10
2018-03-06T16:40:58.693Z,22.97
2018-03-06T16:43:26.330Z,21.13
2018-03-06T16:45:53.962Z,22.63
2018-03-06T16:48:25.176Z,24.67
2018-03-06T16:50:52.817Z,25.83
2018-03-06T16:53:20.713Z,28.20
2018-03-06T16:55:48.344Z,21.97
2018-03-06T16:58:16.067Z,23.63
2018-03-06T17:00:54.503Z,28.17
2018-03-06T17:03:22.124Z,25.07
2018-03-06T17:05:49.756Z,21.43
2018-03-06T17:08:17.381Z,26.63
2018-03-06T17:10:50.900Z,26.00
2018-03-06T17:13:18.577Z,23.50
2018-03-06T17:15:46.200Z,26.23
2018-03-06T17:18:13.824Z,27.60
2018-03-06T17:20:46.262Z,25.27
2018-03-06T17:23:14.663Z,24.60
2018-03-06T17:25:42.293Z,26.67
2018-03-06T17:28:10.869Z,24.60
2018-03-06T17:30:41.496Z,33.20
2018-03-06T17:33:09.122Z,25.03
2018-03-06T17:35:36.768Z,27.17
2018-03-06T17:38:04.418Z,28.70
2018-03-06T17:40:32.030Z,27.13
2018-03-06T17:42:59.661Z,25.23
2018-03-06T17:45:27.296Z,23.97
2018-03-06T17:47:54.916Z,28.70
2018-03-06T17:50:22.553Z,33.60
2018-03-06T17:52:54.287Z,38.97
2018-03-06T17:55:21.936Z,25.67
2018-03-06T17:57:49.557Z,29.13
2018-03-06T18:00:17.185Z,28.93
2018-03-06T18:02:44.804Z,25.57
2018-03-06T18:05:12.468Z,28.17
2018-03-06T18:07:42.034Z,33.33
2018-03-06T18:10:09.660Z,32.40
2018-03-06T18:12:37.286Z,31.33
2018-03-06T18:15:04.921Z,48.63
2018-03-06T18:17:32.549Z,30.07
2018-03-06T18:20:00.177Z,35.03
2018-03-06T18:22:35.797Z,34.30
2018-03-06T18:25:03.421Z,36.53
2018-03-06T18:27:31.084Z,32.60
2018-03-06T18:29:58.708Z,34.03
2018-03-06T18:32:26.352Z,30.20
2018-03-06T18:34:53.982Z,35.97
2018-03-06T18:37:21.606Z,30.47
2018-03-06T18:39:49.228Z,35.23
2018-03-06T18:42:16.866Z,37.67
2018-03-06T18:44:44.488Z,34.63
2018-03-06T18:47:12.115Z,35.17
2018-03-06T18:52:40.669Z,31.63
2018-03-06T18:55:08.303Z,38.33
2018-03-06T18:57:35.923Z,30.90
2018-03-06T19:03:34.131Z,35.80
2018-03-06T19:06:13.694Z,27.50
2018-03-06T19:08:41.437Z,34.57
2018-03-06T19:11:15.996Z,34.77
2018-03-06T19:16:34.894Z,30.03
2018-03-06T19:19:03.317Z,28.47
2018-03-06T19:21:31.026Z,27.77
2018-03-06T19:23:58.802Z,28.53
2018-03-06T19:26:28.341Z,30.90
2018-03-06T19:28:56.086Z,26.07
2018-03-06T19:31:23.875Z,28.87
2018-03-06T19:33:52.514Z,32.63
2018-03-06T19:36:20.618Z,32.07
2018-03-06T19:38:54.631Z,30.77
2018-03-06T19:41:22.369Z,31.67
2018-03-06T19:43:50.163Z,34.37
2018-03-06T19:46:17.889Z,33.07
2018-03-06T19:48:46.550Z,31.63
2018-03-06T19:51:14.986Z,33.17
2018-03-06T19:53:42.761Z,30.23
2018-03-06T19:56:10.469Z,29.43
2018-03-06T19:58:38.249Z,31.10
2018-03-06T20:01:06.395Z,31.77
2018-03-06T20:03:34.899Z,32.25
2018-03-06T20:06:02.664Z,30.87
2018-03-06T20:25:36.530Z,30.23
2018-03-06T20:28:05.842Z,29.43
2018-03-06T20:33:13.370Z,29.30
2018-03-06T20:35:41.145Z,31.17
2018-03-06T20:38:09.061Z,28.73
2018-03-06T20:40:52.247Z,34.20
2018-03-06T20:43:20.183Z,32.83
2018-03-06T20:45:48.712Z,33.17
2018-03-06T20:48:16.630Z,35.00
2018-03-06T20:50:46.152Z,40.40
2018-03-06T20:53:13.909Z,36.77
2018-03-06T20:55:44.780Z,33.87
2018-03-06T20:58:12.647Z,33.00
2018-03-06T21:00:40.582Z,32.23
2018-03-06T21:03:08.540Z,32.67
2018-03-06T21:05:36.457Z,37.77
2018-03-06T21:08:12.180Z,35.50
2018-03-06T21:10:42.684Z,38.10
2018-03-06T21:13:13.574Z,34.27
2018-03-06T21:15:41.357Z,39.50
2018-03-06T21:18:18.901Z,35.53
2018-03-06T21:20:47.854Z,32.53
2018-03-06T21:23:15.700Z,37.63
2018-03-06T21:25:44.310Z,40.93
2018-03-06T21:28:14.695Z,39.23
2018-03-06T21:30:42.592Z,38.73
2018-03-06T21:33:11.008Z,39.60
2018-03-06T21:35:38.981Z,37.87
2018-03-06T21:38:08.712Z,42.57
2018-03-06T21:40:37.476Z,37.70
2018-03-06T21:43:05.852Z,37.10
2018-03-06T21:45:34.014Z,39.63
2018-03-06T21:48:06.517Z,37.60
2018-03-06T21:50:35.445Z,39.33
2018-03-06T21:53:03.212Z,35.37
2018-03-06T21:55:31.880Z,36.40
2018-03-06T21:57:59.697Z,38.30
2018-03-06T22:00:27.440Z,41.80
2018-03-06T22:02:56.225Z,39.93
2018-03-06T22:05:23.981Z,37.97
2018-03-06T22:07:51.974Z,39.83
2018-03-06T22:10:19.897Z,35.90
2018-03-06T22:12:48.510Z,38.03
2018-03-06T22:15:16.287Z,37.10
2018-03-06T22:17:44.157Z,40.77
2018-03-06T22:20:12.681Z,40.57
2018-03-06T22:22:40.538Z,42.53
2018-03-06T22:25:08.428Z,42.77
2018-03-06T22:27:37.056Z,46.50
2018-03-06T22:30:04.849Z,44.23
2018-03-06T22:32:33.744Z,48.50
2018-03-06T22:35:01.894Z,46.80
2018-03-06T22:37:29.875Z,43.47
2018-03-06T22:42:30.746Z,45.37
2018-03-06T22:44:58.497Z,43.67
2018-03-06T22:50:11.820Z,38.07
2018-03-06T22:52:39.518Z,42.07
2018-03-06T22:55:07.341Z,43.40
2018-03-06T22:57:35.195Z,48.97
2018-03-06T23:00:03.051Z,40.13
2018-03-06T23:02:30.832Z,42.57
2018-03-06T23:04:58.541Z,41.27
2018-03-06T23:07:26.250Z,43.43
2018-03-06T23:09:53.994Z,39.53
2018-03-06T23:12:22.085Z,40.87
2018-03-06T23:14:49.935Z,45.33
2018-03-06T23:17:17.661Z,44.27
2018-03-06T23:19:45.466Z,42.80
2018-03-06T23:22:13.294Z,42.50
2018-03-06T23:24:41.030Z,44.23
2018-03-06T23:27:08.999Z,45.17
2018-03-06T23:29:36.766Z,50.30
2018-03-06T23:32:04.502Z,46.93
2018-03-06T23:34:32.420Z,47.43
2018-03-06T23:37:04.904Z,45.77
2018-03-06T23:39:37.173Z,47.00
2018-03-06T23:42:05.251Z,51.57
2018-03-06T23:44:34.010Z,51.80
2018-03-06T23:47:02.719Z,45.90
2018-03-06T23:49:31.345Z,43.50
2018-03-06T23:52:08.427Z,45.67
2018-03-06T23:54:36.247Z,46.20
2018-03-06T23:57:04.705Z,48.37
2018-03-06T23:59:32.536Z,50.93
